createdAt,value
2022-10-28T00:00:19.080Z,21.40
2022-10-28T00:00:49.536Z,21.43
2022-10-28T00:01:20.015Z,21.43
2022-10-28T00:01:50.523Z,21.43
2022-10-28T00:02:21.020Z,21.43
2022-10-28T00:02:51.945Z,21.44
2022-10-28T00:03:22.679Z,21.43
2022-10-28T00:03:53.093Z,21.43
2022-10-28T00:04:23.586Z,21.43
2022-10-28T00:04:53.989Z,21.40
2022-10-28T00:05:24.410Z,21.42
2022-10-28T00:05:54.837Z,21.43
2022-10-28T00:06:25.259Z,21.43
2022-10-28T00:06:55.685Z,21.42
2022-10-28T00:07:26.105Z,21.42
2022-10-28T00:07:56.532Z,21.42
2022-10-28T00:08:26.965Z,21.43
2022-10-28T00:08:57.390Z,21.43
2022-10-28T00:09:27.815Z,21.42
2022-10-28T00:09:58.308Z,21.42
2022-10-28T00:10:28.733Z,21.42
2022-10-28T00:10:59.157Z,21.42
2022-10-28T00:11:29.577Z,21.42
2022-10-28T00:12:00.005Z,21.43
2022-10-28T00:12:30.436Z,21.40
2022-10-28T00:13:00.857Z,21.43
2022-10-28T00:13:31.293Z,21.42
2022-10-28T00:14:01.718Z,21.43
2022-10-28T00:14:32.139Z,21.42
2022-10-28T00:15:02.651Z,21.42
2022-10-28T00:15:33.099Z,21.42
2022-10-28T00:16:03.511Z,21.43
2022-10-28T00:16:33.942Z,21.42
2022-10-28T00:17:04.360Z,21.40
2022-10-28T00:17:34.783Z,21.43
2022-10-28T00:18:05.207Z,21.42
2022-10-28T00:18:35.666Z,21.42
2022-10-28T00:19:06.069Z,21.42
2022-10-28T00:19:36.495Z,21.43
2022-10-28T00:20:06.921Z,21.42
2022-10-28T00:20:37.341Z,21.43
2022-10-28T00:21:07.775Z,21.42
2022-10-28T00:21:38.199Z,21.42
2022-10-28T00:22:08.622Z,21.43
2022-10-28T00:22:39.044Z,21.43
2022-10-28T00:23:09.472Z,21.43
2022-10-28T00:23:39.908Z,21.43
2022-10-28T00:24:10.341Z,21.43
2022-10-28T00:24:40.780Z,21.43
2022-10-28T00:25:11.207Z,21.42
2022-10-28T00:25:41.623Z,21.42
2022-10-28T00:26:12.052Z,21.44
2022-10-28T00:26:42.472Z,21.43
2022-10-28T00:27:12.905Z,21.42
2022-10-28T00:27:43.331Z,21.44
2022-10-28T00:28:13.754Z,21.42
2022-10-28T00:28:44.211Z,21.43
2022-10-28T00:29:14.630Z,21.43
2022-10-28T00:29:45.053Z,21.42
2022-10-28T00:30:15.488Z,21.42
2022-10-28T00:30:45.909Z,21.43
2022-10-28T00:31:16.335Z,21.42
2022-10-28T00:31:46.766Z,21.42
2022-10-28T00:32:17.188Z,21.42
2022-10-28T00:32:47.610Z,21.43
2022-10-28T00:33:18.041Z,21.43
2022-10-28T00:33:48.503Z,21.42
2022-10-28T00:34:18.911Z,21.42
2022-10-28T00:34:49.348Z,21.42
2022-10-28T00:35:19.772Z,21.44
2022-10-28T00:35:50.194Z,21.44
2022-10-28T00:36:20.622Z,21.44
2022-10-28T00:36:51.042Z,21.43
2022-10-28T00:37:21.471Z,21.43
2022-10-28T00:37:51.885Z,21.43
2022-10-28T00:38:22.307Z,21.42
2022-10-28T00:38:52.747Z,21.43
2022-10-28T00:39:23.175Z,21.43
2022-10-28T00:39:53.602Z,21.43
2022-10-28T00:40:24.037Z,21.42
2022-10-28T00:40:54.461Z,21.40
2022-10-28T00:41:24.888Z,21.42
2022-10-28T00:41:55.320Z,21.40
2022-10-28T00:42:25.746Z,21.43
2022-10-28T00:42:56.270Z,21.43
2022-10-28T00:43:57.100Z,21.43
2022-10-28T00:44:27.520Z,21.43
2022-10-28T00:44:57.952Z,21.42
2022-10-28T00:45:28.368Z,21.42
2022-10-28T00:45:58.808Z,21.43
2022-10-28T00:46:29.230Z,21.43
2022-10-28T00:46:59.655Z,21.43
2022-10-28T00:47:30.089Z,21.44
2022-10-28T00:48:00.514Z,21.43
2022-10-28T00:48:30.934Z,21.43
2022-10-28T00:49:01.387Z,21.42
2022-10-28T00:49:31.792Z,21.42
2022-10-28T00:50:02.237Z,21.43
2022-10-28T00:50:32.649Z,21.44
2022-10-28T00:51:03.071Z,21.43
2022-10-28T00:51:33.493Z,21.46
2022-10-28T00:52:03.919Z,21.44
2022-10-28T00:52:34.349Z,21.43
2022-10-28T00:53:04.795Z,21.44
2022-10-28T00:53:35.230Z,21.44
2022-10-28T00:54:05.666Z,21.43
2022-10-28T00:54:36.087Z,21.44
2022-10-28T00:55:06.516Z,21.42
2022-10-28T00:55:36.960Z,21.42
2022-10-28T00:56:07.402Z,21.42
2022-10-28T00:56:37.836Z,21.43
2022-10-28T00:57:08.243Z,21.42
2022-10-28T00:57:38.664Z,21.43
2022-10-28T00:58:09.085Z,21.43
2022-10-28T00:58:39.531Z,21.42
2022-10-28T00:59:09.983Z,21.43
2022-10-28T00:59:40.407Z,21.44
2022-10-28T01:00:10.832Z,21.43
2022-10-28T01:00:41.254Z,21.43
2022-10-28T01:01:11.732Z,21.44
2022-10-28T01:01:42.228Z,21.44
2022-10-28T01:02:12.850Z,21.44
2022-10-28T01:02:43.329Z,21.44
2022-10-28T01:03:13.710Z,21.43
2022-10-28T01:03:44.135Z,21.44
2022-10-28T01:04:14.589Z,21.43
2022-10-28T01:04:45.007Z,21.44
2022-10-28T01:05:15.428Z,21.44
2022-10-28T01:05:45.857Z,21.42
2022-10-28T01:06:16.281Z,21.43
2022-10-28T01:06:46.706Z,21.43
2022-10-28T01:07:17.151Z,21.43
2022-10-28T01:07:47.575Z,21.42
2022-10-28T01:08:17.994Z,21.43
2022-10-28T01:08:48.428Z,21.43
2022-10-28T01:09:18.925Z,21.42
2022-10-28T01:09:49.300Z,21.43
2022-10-28T01:10:19.726Z,21.42
2022-10-28T01:10:50.170Z,21.40
2022-10-28T01:11:20.610Z,21.42
2022-10-28T01:11:51.037Z,21.42
2022-10-28T01:12:21.455Z,21.43
2022-10-28T01:12:52.205Z,21.43
2022-10-28T01:13:22.823Z,21.43
2022-10-28T01:13:53.259Z,21.43
2022-10-28T01:14:23.713Z,21.43
2022-10-28T01:14:54.135Z,21.42
2022-10-28T01:15:24.567Z,21.42
2022-10-28T01:15:55.019Z,21.42
2022-10-28T01:16:25.456Z,21.43
2022-10-28T01:16:55.878Z,21.42
2022-10-28T01:17:26.313Z,21.43
2022-10-28T01:17:56.736Z,21.43
2022-10-28T01:18:27.189Z,21.42
2022-10-28T01:18:57.621Z,21.43
2022-10-28T01:19:28.082Z,21.43
2022-10-28T01:19:58.489Z,21.42
2022-10-28T01:20:28.910Z,21.42
2022-10-28T01:20:59.340Z,21.42
2022-10-28T01:21:29.767Z,21.40
2022-10-28T01:22:00.212Z,21.43
2022-10-28T01:23:02.014Z,21.42
2022-10-28T01:23:32.446Z,21.42
2022-10-28T01:24:02.863Z,21.43
2022-10-28T01:24:33.316Z,21.44
2022-10-28T01:25:03.737Z,21.43
2022-10-28T01:25:34.161Z,21.43
2022-10-28T01:26:04.596Z,21.44
2022-10-28T01:26:35.025Z,21.42
2022-10-28T01:27:05.455Z,21.42
2022-10-28T01:27:35.873Z,21.44
2022-10-28T01:28:06.297Z,21.44
2022-10-28T01:28:36.723Z,21.44
2022-10-28T01:29:07.151Z,21.43
2022-10-28T01:29:37.606Z,21.43
2022-10-28T01:30:08.040Z,21.43
2022-10-28T01:30:38.463Z,21.43
2022-10-28T01:31:08.890Z,21.43
2022-10-28T01:31:39.328Z,21.43
2022-10-28T01:32:09.732Z,21.43
2022-10-28T01:32:40.172Z,21.43
2022-10-28T01:33:10.591Z,21.43
2022-10-28T01:33:41.013Z,21.42
2022-10-28T01:34:11.444Z,21.42
2022-10-28T01:34:41.909Z,21.43
2022-10-28T01:35:12.309Z,21.43
2022-10-28T01:35:42.747Z,21.43
2022-10-28T01:36:13.174Z,21.42
2022-10-28T01:36:43.600Z,21.44
2022-10-28T01:37:14.023Z,21.43
2022-10-28T01:37:44.446Z,21.44
2022-10-28T01:38:14.868Z,21.43
2022-10-28T01:38:45.293Z,21.44
2022-10-28T01:39:15.707Z,21.43
2022-10-28T01:39:46.171Z,21.43
2022-10-28T01:40:16.609Z,21.43
2022-10-28T01:40:47.032Z,21.44
2022-10-28T01:41:17.461Z,21.43
2022-10-28T01:41:47.881Z,21.43
2022-10-28T01:42:18.304Z,21.44
2022-10-28T01:42:48.744Z,21.42
2022-10-28T01:43:19.163Z,21.43
2022-10-28T01:43:49.595Z,21.40
2022-10-28T01:44:20.019Z,21.43
2022-10-28T01:44:50.454Z,21.42
2022-10-28T01:45:20.875Z,21.43
2022-10-28T01:45:51.302Z,21.42
2022-10-28T01:46:21.741Z,21.40
2022-10-28T01:46:52.182Z,21.44
2022-10-28T01:47:22.611Z,21.42
2022-10-28T01:47:53.296Z,21.43
2022-10-28T01:48:24.017Z,21.43
2022-10-28T01:48:54.443Z,21.44
2022-10-28T01:49:24.863Z,21.43
2022-10-28T01:49:55.331Z,21.43
2022-10-28T01:50:25.769Z,21.43
2022-10-28T01:50:56.204Z,21.44
2022-10-28T01:51:26.626Z,21.42
2022-10-28T01:51:57.051Z,21.43
2022-10-28T01:52:27.468Z,21.43
2022-10-28T01:52:57.893Z,21.43
2022-10-28T01:53:28.341Z,21.43
2022-10-28T01:53:58.767Z,21.44
2022-10-28T01:54:29.190Z,21.44
2022-10-28T01:54:59.624Z,21.44
2022-10-28T01:55:30.043Z,21.42
2022-10-28T01:56:00.467Z,21.42
2022-10-28T01:56:30.915Z,21.42
2022-10-28T01:57:01.338Z,21.43
2022-10-28T01:57:31.766Z,21.42
2022-10-28T01:58:02.190Z,21.42
2022-10-28T01:58:32.617Z,21.43
2022-10-28T01:59:03.032Z,21.43
2022-10-28T01:59:33.459Z,21.43
2022-10-28T02:00:03.888Z,21.44
2022-10-28T02:00:34.381Z,21.43
2022-10-28T02:01:04.877Z,21.43
2022-10-28T02:01:35.453Z,21.44
2022-10-28T02:02:05.950Z,21.43
2022-10-28T02:02:36.374Z,21.42
2022-10-28T02:03:06.801Z,21.42
2022-10-28T02:03:37.253Z,21.42
2022-10-28T02:04:07.675Z,21.43
2022-10-28T02:04:38.105Z,21.42
2022-10-28T02:05:08.560Z,21.42
2022-10-28T02:05:38.967Z,21.44
2022-10-28T02:06:09.403Z,21.42
2022-10-28T02:06:39.834Z,21.42
2022-10-28T02:07:10.256Z,21.42
2022-10-28T02:07:40.678Z,21.42
2022-10-28T02:08:11.106Z,21.42
2022-10-28T02:08:41.533Z,21.43
2022-10-28T02:09:11.962Z,21.42
2022-10-28T02:09:42.397Z,21.42
2022-10-28T02:10:12.828Z,21.42
2022-10-28T02:10:43.256Z,21.42
2022-10-28T02:11:13.684Z,21.43
2022-10-28T02:11:44.121Z,21.42
2022-10-28T02:12:14.532Z,21.43
2022-10-28T02:12:44.955Z,21.43
2022-10-28T02:13:15.382Z,21.44
2022-10-28T02:13:45.804Z,21.42
2022-10-28T02:14:16.228Z,21.43
2022-10-28T02:14:46.647Z,21.42
2022-10-28T02:15:17.084Z,21.42
2022-10-28T02:15:47.522Z,21.43
2022-10-28T02:16:17.962Z,21.42
2022-10-28T02:16:48.382Z,21.40
2022-10-28T02:17:18.802Z,21.43
2022-10-28T02:17:49.224Z,21.43
2022-10-28T02:18:19.652Z,21.42
2022-10-28T02:18:50.091Z,21.42
2022-10-28T02:19:20.506Z,21.43
2022-10-28T02:19:50.932Z,21.43
2022-10-28T02:20:21.392Z,21.42
2022-10-28T02:20:51.801Z,21.42
2022-10-28T02:21:22.224Z,21.42
2022-10-28T02:21:52.644Z,21.43
2022-10-28T02:22:23.072Z,21.40
2022-10-28T02:22:53.517Z,21.42
2022-10-28T02:23:23.957Z,21.43
2022-10-28T02:23:54.384Z,21.42
2022-10-28T02:24:24.805Z,21.40
2022-10-28T02:24:55.226Z,21.43
2022-10-28T02:25:25.661Z,21.42
2022-10-28T02:25:56.089Z,21.40
2022-10-28T02:26:26.508Z,21.40
2022-10-28T02:26:56.933Z,21.40
2022-10-28T02:27:27.358Z,21.43
2022-10-28T02:27:57.838Z,21.40
2022-10-28T02:28:28.241Z,21.42
2022-10-28T02:28:58.677Z,21.40
2022-10-28T02:29:29.103Z,21.40
2022-10-28T02:29:59.522Z,21.40
2022-10-28T02:30:29.954Z,21.40
2022-10-28T02:31:00.383Z,21.42
2022-10-28T02:31:30.822Z,21.42
2022-10-28T02:32:01.233Z,21.42
2022-10-28T02:32:31.659Z,21.40
2022-10-28T02:33:02.078Z,21.40
2022-10-28T02:33:32.499Z,21.43
2022-10-28T02:34:02.931Z,21.42
2022-10-28T02:34:33.361Z,21.42
2022-10-28T02:35:03.776Z,21.40
2022-10-28T02:35:34.226Z,21.42
2022-10-28T02:36:04.638Z,21.43
2022-10-28T02:36:35.072Z,21.43
2022-10-28T02:37:05.497Z,21.42
2022-10-28T02:37:35.929Z,21.42
2022-10-28T02:38:06.364Z,21.42
2022-10-28T02:38:36.789Z,21.40
2022-10-28T02:39:07.206Z,21.40
2022-10-28T02:39:37.629Z,21.38
2022-10-28T02:40:08.065Z,21.38
2022-10-28T02:40:38.593Z,21.38
2022-10-28T02:41:09.016Z,21.40
2022-10-28T02:41:39.444Z,21.42
2022-10-28T02:42:09.862Z,21.40
2022-10-28T02:42:40.290Z,21.40
2022-10-28T02:43:10.703Z,21.42
2022-10-28T02:43:41.140Z,21.43
2022-10-28T02:44:11.566Z,21.42
2022-10-28T02:44:41.986Z,21.40
2022-10-28T02:45:12.414Z,21.40
2022-10-28T02:45:42.846Z,21.40
2022-10-28T02:46:13.266Z,21.40
2022-10-28T02:46:43.698Z,21.43
2022-10-28T02:47:14.114Z,21.42
2022-10-28T02:47:44.534Z,21.40
2022-10-28T02:48:14.957Z,21.40
2022-10-28T02:48:45.394Z,21.42
2022-10-28T02:49:15.817Z,21.40
2022-10-28T02:49:46.245Z,21.40
2022-10-28T02:50:16.668Z,21.43
2022-10-28T02:50:47.119Z,21.42
2022-10-28T02:51:17.525Z,21.42
2022-10-28T02:51:47.945Z,21.42
2022-10-28T02:52:18.372Z,21.42
2022-10-28T02:52:48.792Z,21.42
2022-10-28T02:53:19.364Z,21.42
2022-10-28T02:53:49.833Z,21.40
2022-10-28T02:54:20.256Z,21.42
2022-10-28T02:54:50.679Z,21.42
2022-10-28T02:55:21.103Z,21.40
2022-10-28T02:55:51.544Z,21.42
2022-10-28T02:56:21.969Z,21.42
2022-10-28T02:56:52.404Z,21.40
2022-10-28T02:57:22.824Z,21.40
2022-10-28T02:57:53.504Z,21.38
2022-10-28T02:58:24.085Z,21.40
2022-10-28T02:58:54.507Z,21.38
2022-10-28T02:59:24.924Z,21.40
2022-10-28T02:59:55.347Z,21.40
2022-10-28T03:00:25.782Z,21.40
2022-10-28T03:00:56.290Z,21.40
2022-10-28T03:01:26.822Z,21.40
2022-10-28T03:01:57.369Z,21.40
2022-10-28T03:02:27.799Z,21.40
2022-10-28T03:02:58.226Z,21.40
2022-10-28T03:03:28.646Z,21.40
2022-10-28T03:03:59.084Z,21.40
2022-10-28T03:04:29.500Z,21.42
2022-10-28T03:04:59.973Z,21.42
2022-10-28T03:05:30.397Z,21.42
2022-10-28T03:06:00.853Z,21.43
2022-10-28T03:06:31.290Z,21.43
2022-10-28T03:07:01.702Z,21.42
2022-10-28T03:07:32.136Z,21.43
2022-10-28T03:08:02.558Z,21.42
2022-10-28T03:08:32.985Z,21.42
2022-10-28T03:09:03.418Z,21.42
2022-10-28T03:09:33.848Z,21.42
2022-10-28T03:10:04.316Z,21.40
2022-10-28T03:10:34.700Z,21.42
2022-10-28T03:11:05.134Z,21.42
2022-10-28T03:11:35.559Z,21.40
2022-10-28T03:12:05.978Z,21.40
2022-10-28T03:12:36.412Z,21.38
2022-10-28T03:13:06.846Z,21.38
2022-10-28T03:13:37.268Z,21.38
2022-10-28T03:14:10.665Z,21.40
2022-10-28T03:14:43.034Z,21.38
2022-10-28T03:15:13.455Z,21.40
2022-10-28T03:15:43.882Z,21.40
2022-10-28T03:16:14.320Z,21.38
2022-10-28T03:16:44.756Z,21.38
2022-10-28T03:17:15.181Z,21.40
2022-10-28T03:17:45.607Z,21.40
2022-10-28T03:18:16.032Z,21.38
2022-10-28T03:18:46.452Z,21.40
2022-10-28T03:19:16.874Z,21.38
2022-10-28T03:19:47.299Z,21.37
2022-10-28T03:20:17.737Z,21.40
2022-10-28T03:20:48.156Z,21.40
2022-10-28T03:21:18.783Z,21.38
2022-10-28T03:21:49.208Z,21.40
2022-10-28T03:22:19.640Z,21.42
2022-10-28T03:22:50.076Z,21.40
2022-10-28T03:23:20.481Z,21.42
2022-10-28T03:23:50.907Z,21.42
2022-10-28T03:24:21.334Z,21.42
2022-10-28T03:24:51.750Z,21.40
2022-10-28T03:25:22.197Z,21.42
2022-10-28T03:25:52.617Z,21.42
2022-10-28T03:26:23.052Z,21.40
2022-10-28T03:26:53.486Z,21.40
2022-10-28T03:27:23.912Z,21.40
2022-10-28T03:27:54.333Z,21.38
2022-10-28T03:28:24.768Z,21.38
2022-10-28T03:28:55.188Z,21.37
2022-10-28T03:29:25.622Z,21.37
2022-10-28T03:29:56.048Z,21.35
2022-10-28T03:30:26.473Z,21.37
2022-10-28T03:30:56.911Z,21.35
2022-10-28T03:31:27.380Z,21.35
2022-10-28T03:31:57.800Z,21.37
2022-10-28T03:32:28.224Z,21.37
2022-10-28T03:32:58.640Z,21.37
2022-10-28T03:33:29.065Z,21.37
2022-10-28T03:33:59.494Z,21.37
2022-10-28T03:34:29.958Z,21.37
2022-10-28T03:35:00.363Z,21.37
2022-10-28T03:35:30.784Z,21.38
2022-10-28T03:36:01.209Z,21.40
2022-10-28T03:36:31.702Z,21.38
2022-10-28T03:37:02.076Z,21.38
2022-10-28T03:37:32.525Z,21.38
2022-10-28T03:38:02.948Z,21.40
2022-10-28T03:38:33.369Z,21.38
2022-10-28T03:39:03.791Z,21.38
2022-10-28T03:39:34.216Z,21.38
2022-10-28T03:40:04.633Z,21.38
2022-10-28T03:40:35.068Z,21.38
2022-10-28T03:41:05.533Z,21.37
2022-10-28T03:41:35.973Z,21.37
2022-10-28T03:42:06.402Z,21.37
2022-10-28T03:42:38.931Z,21.37
2022-10-28T03:43:11.493Z,21.37
2022-10-28T03:43:41.942Z,21.38
2022-10-28T03:44:12.349Z,21.38
2022-10-28T03:44:42.783Z,21.38
2022-10-28T03:45:13.212Z,21.37
2022-10-28T03:45:43.636Z,21.38
2022-10-28T03:46:14.063Z,21.38
2022-10-28T03:46:44.499Z,21.37
2022-10-28T03:47:14.917Z,21.38
2022-10-28T03:47:45.341Z,21.38
2022-10-28T03:48:15.762Z,21.38
2022-10-28T03:48:46.191Z,21.42
2022-10-28T03:49:16.608Z,21.38
2022-10-28T03:49:47.028Z,21.38
2022-10-28T03:50:17.454Z,21.38
2022-10-28T03:50:47.883Z,21.38
2022-10-28T03:51:18.306Z,21.38
2022-10-28T03:51:48.768Z,21.38
2022-10-28T03:52:19.163Z,21.38
2022-10-28T03:52:49.609Z,21.38
2022-10-28T03:53:20.036Z,21.38
2022-10-28T03:53:50.466Z,21.40
2022-10-28T03:54:20.885Z,21.40
2022-10-28T03:54:51.312Z,21.38
2022-10-28T03:55:21.736Z,21.40
2022-10-28T03:55:52.157Z,21.37
2022-10-28T03:56:22.596Z,21.40
2022-10-28T03:56:53.029Z,21.38
2022-10-28T03:57:23.454Z,21.40
2022-10-28T03:57:54.136Z,21.40
2022-10-28T03:58:24.724Z,21.40
2022-10-28T03:58:55.149Z,21.40
2022-10-28T03:59:25.586Z,21.38
2022-10-28T03:59:56.026Z,21.38
2022-10-28T04:00:26.460Z,21.40
2022-10-28T04:00:57.001Z,21.38
2022-10-28T04:01:27.562Z,21.38
2022-10-28T04:01:58.136Z,21.38
2022-10-28T04:02:28.586Z,21.38
2022-10-28T04:02:59.003Z,21.38
2022-10-28T04:03:29.438Z,21.38
2022-10-28T04:03:59.859Z,21.37
2022-10-28T04:04:30.913Z,21.38
2022-10-28T04:05:01.363Z,21.40
2022-10-28T04:05:31.783Z,21.38
2022-10-28T04:06:02.205Z,21.38
2022-10-28T04:06:32.632Z,21.38
2022-10-28T04:07:03.121Z,21.37
2022-10-28T04:07:33.499Z,21.37
2022-10-28T04:08:03.933Z,21.37
2022-10-28T04:08:34.368Z,21.38
2022-10-28T04:09:04.794Z,21.37
2022-10-28T04:09:35.216Z,21.37
2022-10-28T04:10:05.637Z,21.35
2022-10-28T04:10:36.058Z,21.38
2022-10-28T04:11:06.482Z,21.37
2022-10-28T04:11:36.903Z,21.38
2022-10-28T04:12:07.352Z,21.38
2022-10-28T04:12:37.765Z,21.37
2022-10-28T04:13:08.186Z,21.38
2022-10-28T04:13:38.616Z,21.37
2022-10-28T04:14:09.037Z,21.38
2022-10-28T04:14:39.462Z,21.38
2022-10-28T04:15:09.889Z,21.38
2022-10-28T04:15:40.309Z,21.38
2022-10-28T04:16:10.746Z,21.38
2022-10-28T04:16:41.170Z,21.38
2022-10-28T04:17:11.613Z,21.38
2022-10-28T04:17:42.037Z,21.37
2022-10-28T04:18:12.459Z,21.38
2022-10-28T04:18:42.878Z,21.37
2022-10-28T04:19:13.300Z,21.37
2022-10-28T04:19:43.748Z,21.40
2022-10-28T04:20:14.168Z,21.37
2022-10-28T04:20:44.601Z,21.38
2022-10-28T04:21:15.034Z,21.37
2022-10-28T04:21:45.457Z,21.37
2022-10-28T04:22:15.922Z,21.37
2022-10-28T04:22:46.351Z,21.38
2022-10-28T04:23:16.755Z,21.37
2022-10-28T04:23:47.184Z,21.35
2022-10-28T04:24:17.602Z,21.35
2022-10-28T04:24:48.027Z,21.38
2022-10-28T04:25:18.460Z,21.37
2022-10-28T04:25:48.873Z,21.37
2022-10-28T04:26:19.324Z,21.37
2022-10-28T04:26:49.758Z,21.37
2022-10-28T04:27:20.184Z,21.37
2022-10-28T04:27:50.929Z,21.35
2022-10-28T04:28:21.486Z,21.37
2022-10-28T04:28:51.924Z,21.34
2022-10-28T04:29:22.347Z,21.38
2022-10-28T04:29:52.776Z,21.37
2022-10-28T04:30:23.196Z,21.35
2022-10-28T04:30:53.621Z,21.35
2022-10-28T04:31:24.057Z,21.35
2022-10-28T04:31:54.486Z,21.35
2022-10-28T04:32:24.932Z,21.35
2022-10-28T04:32:55.352Z,21.35
2022-10-28T04:33:25.773Z,21.37
2022-10-28T04:33:56.195Z,21.35
2022-10-28T04:34:26.615Z,21.35
2022-10-28T04:34:57.068Z,21.37
2022-10-28T04:35:27.481Z,21.38
2022-10-28T04:35:57.910Z,21.38
2022-10-28T04:36:28.333Z,21.37
2022-10-28T04:36:58.754Z,21.37
2022-10-28T04:37:29.220Z,21.35
2022-10-28T04:37:59.612Z,21.35
2022-10-28T04:38:30.073Z,21.35
2022-10-28T04:39:00.456Z,21.37
2022-10-28T04:39:30.880Z,21.35
2022-10-28T04:40:01.310Z,21.35
2022-10-28T04:40:31.735Z,21.37
2022-10-28T04:41:02.154Z,21.35
2022-10-28T04:41:32.585Z,21.35
2022-10-28T04:42:03.005Z,21.38
2022-10-28T04:42:33.446Z,21.37
2022-10-28T04:43:07.330Z,21.37
2022-10-28T04:43:39.212Z,21.37
2022-10-28T04:44:09.636Z,21.37
2022-10-28T04:44:40.058Z,21.34
2022-10-28T04:45:10.489Z,21.35
2022-10-28T04:45:40.920Z,21.35
2022-10-28T04:46:11.340Z,21.37
2022-10-28T04:46:41.773Z,21.35
2022-10-28T04:47:12.194Z,21.37
2022-10-28T04:47:42.631Z,21.37
2022-10-28T04:48:13.057Z,21.35
2022-10-28T04:48:43.493Z,21.37
2022-10-28T04:49:13.907Z,21.35
2022-10-28T04:49:44.339Z,21.37
2022-10-28T04:50:14.764Z,21.34
2022-10-28T04:50:45.192Z,21.35
2022-10-28T04:51:15.627Z,21.34
2022-10-28T04:52:17.393Z,21.35
2022-10-28T04:52:47.847Z,21.35
2022-10-28T04:53:18.291Z,21.37
2022-10-28T04:53:48.713Z,21.38
2022-10-28T04:54:19.137Z,21.38
2022-10-28T04:54:49.566Z,21.38
2022-10-28T04:55:19.998Z,21.38
2022-10-28T04:55:50.419Z,21.37
2022-10-28T04:56:20.846Z,21.38
2022-10-28T04:56:51.278Z,21.38
2022-10-28T04:57:21.702Z,21.35
2022-10-28T04:57:52.163Z,21.38
2022-10-28T04:58:22.615Z,21.35
2022-10-28T04:58:53.029Z,21.35
2022-10-28T04:59:23.470Z,21.35
2022-10-28T04:59:53.897Z,21.35
2022-10-28T05:00:24.333Z,21.37
2022-10-28T05:00:54.768Z,21.35
2022-10-28T05:01:25.391Z,21.35
2022-10-28T05:01:55.932Z,21.35
2022-10-28T05:02:26.541Z,21.35
2022-10-28T05:02:57.328Z,21.35
2022-10-28T05:03:28.069Z,21.35
2022-10-28T05:03:58.488Z,21.37
2022-10-28T05:04:28.922Z,21.35
2022-10-28T05:04:59.349Z,21.37
2022-10-28T05:05:29.777Z,21.38
2022-10-28T05:06:00.188Z,21.38
2022-10-28T05:06:30.611Z,21.38
2022-10-28T05:07:01.042Z,21.37
2022-10-28T05:07:31.465Z,21.37
2022-10-28T05:08:01.923Z,21.35
2022-10-28T05:08:32.328Z,21.37
2022-10-28T05:09:02.749Z,21.35
2022-10-28T05:09:33.170Z,21.35
2022-10-28T05:10:03.591Z,21.35
2022-10-28T05:10:34.019Z,21.35
2022-10-28T05:11:04.441Z,21.34
2022-10-28T05:11:34.877Z,21.35
2022-10-28T05:12:05.296Z,21.35
2022-10-28T05:12:35.719Z,21.35
2022-10-28T05:13:06.161Z,21.35
2022-10-28T05:13:36.580Z,21.34
2022-10-28T05:14:07.005Z,21.35
2022-10-28T05:14:37.426Z,21.34
2022-10-28T05:15:07.871Z,21.35
2022-10-28T05:15:38.291Z,21.34
2022-10-28T05:16:08.716Z,21.37
2022-10-28T05:16:39.149Z,21.34
2022-10-28T05:17:09.574Z,21.32
2022-10-28T05:17:40.020Z,21.34
2022-10-28T05:18:10.463Z,21.34
2022-10-28T05:18:40.967Z,21.32
2022-10-28T05:19:11.384Z,21.34
2022-10-28T05:19:41.798Z,21.34
2022-10-28T05:20:12.218Z,21.35
2022-10-28T05:20:42.652Z,21.37
2022-10-28T05:21:13.075Z,21.37
2022-10-28T05:21:43.495Z,21.34
2022-10-28T05:22:13.921Z,21.34
2022-10-28T05:22:44.344Z,21.34
2022-10-28T05:23:14.802Z,21.34
2022-10-28T05:23:45.201Z,21.32
2022-10-28T05:24:15.629Z,21.34
2022-10-28T05:24:46.044Z,21.34
2022-10-28T05:25:16.472Z,21.32
2022-10-28T05:25:46.896Z,21.32
2022-10-28T05:26:17.334Z,21.34
2022-10-28T05:26:47.756Z,21.34
2022-10-28T05:27:18.196Z,21.34
2022-10-28T05:27:48.609Z,21.34
2022-10-28T05:28:19.048Z,21.34
2022-10-28T05:28:49.475Z,21.35
2022-10-28T05:29:19.895Z,21.35
2022-10-28T05:29:50.317Z,21.34
2022-10-28T05:30:20.741Z,21.32
2022-10-28T05:30:51.184Z,21.32
2022-10-28T05:31:21.602Z,21.32
2022-10-28T05:31:52.066Z,21.34
2022-10-28T05:32:22.449Z,21.35
2022-10-28T05:32:55.220Z,21.35
2022-10-28T05:33:25.819Z,21.35
2022-10-28T05:33:56.254Z,21.34
2022-10-28T05:34:26.672Z,21.35
2022-10-28T05:34:57.088Z,21.34
2022-10-28T05:35:27.518Z,21.34
2022-10-28T05:35:57.945Z,21.35
2022-10-28T05:36:28.365Z,21.34
2022-10-28T05:36:58.791Z,21.38
2022-10-28T05:37:29.227Z,21.35
2022-10-28T05:37:59.670Z,21.34
2022-10-28T05:38:30.125Z,21.35
2022-10-28T05:39:00.530Z,21.37
2022-10-28T05:39:30.951Z,21.34
2022-10-28T05:40:01.378Z,21.34
2022-10-28T05:40:31.798Z,21.34
2022-10-28T05:41:02.219Z,21.34
2022-10-28T05:41:36.461Z,21.34
2022-10-28T05:42:07.977Z,21.35
2022-10-28T05:42:38.397Z,21.37
2022-10-28T05:43:08.822Z,21.35
2022-10-28T05:43:39.260Z,21.34
2022-10-28T05:44:09.686Z,21.34
2022-10-28T05:44:40.118Z,21.35
2022-10-28T05:45:10.544Z,21.35
2022-10-28T05:45:40.968Z,21.34
2022-10-28T05:46:11.389Z,21.35
2022-10-28T05:46:41.815Z,21.37
2022-10-28T05:47:12.234Z,21.34
2022-10-28T05:47:42.660Z,21.34
2022-10-28T05:48:13.119Z,21.34
2022-10-28T05:48:43.589Z,21.34
2022-10-28T05:49:14.059Z,21.35
2022-10-28T05:49:44.491Z,21.35
2022-10-28T05:50:14.907Z,21.35
2022-10-28T05:50:45.329Z,21.35
2022-10-28T05:51:15.749Z,21.35
2022-10-28T05:51:46.183Z,21.35
2022-10-28T05:52:16.670Z,21.34
2022-10-28T05:52:47.081Z,21.35
2022-10-28T05:53:17.504Z,21.37
2022-10-28T05:53:47.967Z,21.37
2022-10-28T05:54:18.393Z,21.35
2022-10-28T05:54:48.816Z,21.35
2022-10-28T05:55:19.239Z,21.35
2022-10-28T05:55:49.663Z,21.34
2022-10-28T05:56:20.088Z,21.34
2022-10-28T05:56:50.505Z,21.35
2022-10-28T05:57:20.926Z,21.35
2022-10-28T05:57:51.625Z,21.37
2022-10-28T05:58:22.215Z,21.37
2022-10-28T05:58:52.659Z,21.37
2022-10-28T05:59:23.072Z,21.35
2022-10-28T05:59:53.499Z,21.35
2022-10-28T06:00:23.933Z,21.34
2022-10-28T06:00:54.366Z,21.35
2022-10-28T06:01:24.985Z,21.35
2022-10-28T06:01:55.504Z,21.37
2022-10-28T06:02:25.907Z,21.35
2022-10-28T06:02:56.718Z,21.35
2022-10-28T06:03:30.948Z,21.35
2022-10-28T06:04:01.937Z,21.34
2022-10-28T06:04:32.358Z,21.34
2022-10-28T06:05:02.788Z,21.35
2022-10-28T06:05:33.222Z,21.35
2022-10-28T06:06:03.646Z,21.32
2022-10-28T06:06:34.068Z,21.35
2022-10-28T06:07:04.487Z,21.34
2022-10-28T06:07:34.911Z,21.34
2022-10-28T06:08:05.330Z,21.34
2022-10-28T06:08:35.753Z,21.35
2022-10-28T06:09:06.211Z,21.34
2022-10-28T06:09:36.619Z,21.35
2022-10-28T06:10:07.041Z,21.35
2022-10-28T06:10:37.473Z,21.34
2022-10-28T06:11:06.355Z,21.35
2022-10-28T06:11:36.778Z,21.35
2022-10-28T06:12:07.205Z,21.37
2022-10-28T06:12:37.722Z,21.34
2022-10-28T06:13:08.110Z,21.34
2022-10-28T06:13:38.530Z,21.35
2022-10-28T06:14:08.975Z,21.35
2022-10-28T06:14:39.399Z,21.35
2022-10-28T06:15:09.821Z,21.37
2022-10-28T06:15:40.253Z,21.37
2022-10-28T06:16:10.674Z,21.35
2022-10-28T06:16:41.120Z,21.35
2022-10-28T06:17:11.543Z,21.35
2022-10-28T06:17:41.991Z,21.35
2022-10-28T06:18:15.453Z,21.35
2022-10-28T06:18:47.775Z,21.35
2022-10-28T06:19:18.226Z,21.35
2022-10-28T06:19:48.653Z,21.35
2022-10-28T06:20:19.089Z,21.37
2022-10-28T06:20:49.522Z,21.35
2022-10-28T06:21:19.944Z,21.35
2022-10-28T06:21:50.365Z,21.35
2022-10-28T06:22:20.789Z,21.37
2022-10-28T06:22:51.419Z,21.35
2022-10-28T06:23:21.957Z,21.37
2022-10-28T06:23:52.374Z,21.35
2022-10-28T06:24:22.846Z,21.35
2022-10-28T06:24:53.255Z,21.37
2022-10-28T06:25:23.680Z,21.35
2022-10-28T06:25:54.158Z,21.37
2022-10-28T06:26:24.536Z,21.37
2022-10-28T06:26:54.964Z,21.37
2022-10-28T06:27:25.394Z,21.37
2022-10-28T06:27:55.963Z,21.35
2022-10-28T06:28:26.407Z,21.38
2022-10-28T06:28:56.848Z,21.35
2022-10-28T06:29:27.305Z,21.37
2022-10-28T06:29:57.736Z,21.35
2022-10-28T06:30:28.157Z,21.37
2022-10-28T06:30:58.590Z,21.37
2022-10-28T06:31:29.006Z,21.38
2022-10-28T06:31:59.485Z,21.38
2022-10-28T06:32:29.908Z,21.38
2022-10-28T06:33:00.338Z,21.38
2022-10-28T06:33:30.761Z,21.37
2022-10-28T06:34:01.181Z,21.42